Terminal Aerodrome Forecast
Issued by NWS

Home | Current Version | Previous Version | Text Only | Print | Product List | Glossary On
Versions: 1 2 3 4 5 6 7 8 9 10 11 12 13 14 15 16 17 18 19 20
000
FTUS44 KOHX 250100 AAA
TAFCKV
TAF AMD
KCKV 250149Z 2502/2524 16010G16KT P6SM VCSH SCT050 BKN100
      TEMPO 2502/2504 4SM SHRA OVC040
     FM250400 16012KT P6SM SCT050 BKN100
      TEMPO 2511/2515 3SM SHRA OVC025
     FM251500 18012G25KT P6SM SCT025 BKN040 PROB30 2518/2524 3SM
      TSRA OVC025CB=

USA.gov is the U.S. government's official web portal to all federal, state and local government web resources and services.